sensor_id;sensor_type;location;lat;lon;timestamp;temperature;humidity
52471;DHT22;38382;53.160;7.026;2022-10-23T00:00:21;10.10;99.90
52471;DHT22;38382;53.160;7.026;2022-10-23T00:02:51;10.20;99.90
52471;DHT22;38382;53.160;7.026;2022-10-23T00:05:17;10.10;99.90
52471;DHT22;38382;53.160;7.026;2022-10-23T00:07:47;10.10;99.90
52471;DHT22;38382;53.160;7.026;2022-10-23T00:10:13;10.00;99.90
52471;DHT22;38382;53.160;7.026;2022-10-23T00:12:39;10.10;99.90
52471;DHT22;38382;53.160;7.026;2022-10-23T00:15:05;10.10;99.90
52471;DHT22;38382;53.160;7.026;2022-10-23T00:17:31;10.10;99.90
52471;DHT22;38382;53.160;7.026;2022-10-23T00:19:59;10.10;99.90
52471;DHT22;38382;53.160;7.026;2022-10-23T00:22:25;10.10;99.90
52471;DHT22;38382;53.160;7.026;2022-10-23T00:24:51;10.00;99.90
52471;DHT22;38382;53.160;7.026;2022-10-23T00:27:17;10.00;99.90
52471;DHT22;38382;53.160;7.026;2022-10-23T00:29:44;10.10;99.90
52471;DHT22;38382;53.160;7.026;2022-10-23T00:32:09;10.00;99.90
52471;DHT22;38382;53.160;7.026;2022-10-23T00:34:35;10.10;99.90
52471;DHT22;38382;53.160;7.026;2022-10-23T00:37:01;10.00;99.90
52471;DHT22;38382;53.160;7.026;2022-10-23T00:39:27;10.10;99.90
52471;DHT22;38382;53.160;7.026;2022-10-23T00:41:53;10.00;99.90
52471;DHT22;38382;53.160;7.026;2022-10-23T00:46:45;10.00;99.90
52471;DHT22;38382;53.160;7.026;2022-10-23T00:49:11;10.00;99.90
52471;DHT22;38382;53.160;7.026;2022-10-23T00:51:44;9.90;99.90
52471;DHT22;38382;53.160;7.026;2022-10-23T00:54:13;10.00;99.90
52471;DHT22;38382;53.160;7.026;2022-10-23T00:56:43;10.00;99.90
52471;DHT22;38382;53.160;7.026;2022-10-23T00:59:09;10.00;99.90
52471;DHT22;38382;53.160;7.026;2022-10-23T01:01:35;10.00;99.90
52471;DHT22;38382;53.160;7.026;2022-10-23T01:04:02;10.00;99.90
52471;DHT22;38382;53.160;7.026;2022-10-23T01:06:36;10.10;99.90
52471;DHT22;38382;53.160;7.026;2022-10-23T01:09:14;10.10;99.90
52471;DHT22;38382;53.160;7.026;2022-10-23T01:11:52;10.10;99.90
52471;DHT22;38382;53.160;7.026;2022-10-23T01:15:07;10.10;99.90
52471;DHT22;38382;53.160;7.026;2022-10-23T01:20:13;10.20;99.90
52471;DHT22;38382;53.160;7.026;2022-10-23T01:28:41;10.20;99.90
52471;DHT22;38382;53.160;7.026;2022-10-23T01:31:12;10.20;99.90
52471;DHT22;38382;53.160;7.026;2022-10-23T01:33:42;10.20;99.90
52471;DHT22;38382;53.160;7.026;2022-10-23T01:36:14;10.20;99.90
52471;DHT22;38382;53.160;7.026;2022-10-23T01:41:34;10.10;99.90
52471;DHT22;38382;53.160;7.026;2022-10-23T01:44:21;10.10;99.90
52471;DHT22;38382;53.160;7.026;2022-10-23T01:46:49;10.00;99.90
52471;DHT22;38382;53.160;7.026;2022-10-23T01:49:16;10.00;99.90
52471;DHT22;38382;53.160;7.026;2022-10-23T01:51:47;10.00;99.90
52471;DHT22;38382;53.160;7.026;2022-10-23T01:54:14;10.00;99.90
52471;DHT22;38382;53.160;7.026;2022-10-23T01:56:43;9.90;99.90
52471;DHT22;38382;53.160;7.026;2022-10-23T01:59:21;9.90;99.90
52471;DHT22;38382;53.160;7.026;2022-10-23T02:01:50;9.90;99.90
52471;DHT22;38382;53.160;7.026;2022-10-23T02:04:22;9.80;99.90
52471;DHT22;38382;53.160;7.026;2022-10-23T02:06:49;9.80;99.90
52471;DHT22;38382;53.160;7.026;2022-10-23T02:09:15;9.80;99.90
52471;DHT22;38382;53.160;7.026;2022-10-23T02:12:07;9.70;99.90
52471;DHT22;38382;53.160;7.026;2022-10-23T02:14:43;9.70;99.90
52471;DHT22;38382;53.160;7.026;2022-10-23T02:17:15;9.60;99.90
52471;DHT22;38382;53.160;7.026;2022-10-23T02:25:36;9.60;99.90
52471;DHT22;38382;53.160;7.026;2022-10-23T02:28:06;9.60;99.90
52471;DHT22;38382;53.160;7.026;2022-10-23T02:30:36;9.60;99.90
52471;DHT22;38382;53.160;7.026;2022-10-23T02:33:04;9.60;99.90
52471;DHT22;38382;53.160;7.026;2022-10-23T02:35:30;9.50;99.90
52471;DHT22;38382;53.160;7.026;2022-10-23T02:37:58;9.50;99.90
52471;DHT22;38382;53.160;7.026;2022-10-23T02:40:31;9.50;99.90
52471;DHT22;38382;53.160;7.026;2022-10-23T02:43:05;9.50;99.90
52471;DHT22;38382;53.160;7.026;2022-10-23T02:45:47;9.50;99.90
52471;DHT22;38382;53.160;7.026;2022-10-23T02:48:29;9.40;99.90
52471;DHT22;38382;53.160;7.026;2022-10-23T02:51:06;9.50;99.90
52471;DHT22;38382;53.160;7.026;2022-10-23T02:54:04;9.60;99.90
52471;DHT22;38382;53.160;7.026;2022-10-23T02:56:53;9.40;99.90
52471;DHT22;38382;53.160;7.026;2022-10-23T02:59:34;9.40;99.90
52471;DHT22;38382;53.160;7.026;2022-10-23T03:02:05;9.40;99.90
52471;DHT22;38382;53.160;7.026;2022-10-23T03:04:32;9.40;99.90
52471;DHT22;38382;53.160;7.026;2022-10-23T03:07:00;9.40;99.90
52471;DHT22;38382;53.160;7.026;2022-10-23T03:09:26;9.40;99.90
52471;DHT22;38382;53.160;7.026;2022-10-23T03:11:51;9.50;99.90
52471;DHT22;38382;53.160;7.026;2022-10-23T03:14:17;9.40;99.90
52471;DHT22;38382;53.160;7.026;2022-10-23T03:16:44;9.40;99.90
52471;DHT22;38382;53.160;7.026;2022-10-23T03:19:10;9.50;99.90
52471;DHT22;38382;53.160;7.026;2022-10-23T03:21:36;9.60;99.90
52471;DHT22;38382;53.160;7.026;2022-10-23T03:24:02;9.50;99.90
52471;DHT22;38382;53.160;7.026;2022-10-23T03:26:27;9.40;99.90
52471;DHT22;38382;53.160;7.026;2022-10-23T03:28:53;9.50;99.90
52471;DHT22;38382;53.160;7.026;2022-10-23T03:31:19;9.50;99.90
52471;DHT22;38382;53.160;7.026;2022-10-23T03:33:45;9.50;99.90
52471;DHT22;38382;53.160;7.026;2022-10-23T03:36:10;9.60;99.90
52471;DHT22;38382;53.160;7.026;2022-10-23T03:38:36;9.70;99.90
52471;DHT22;38382;53.160;7.026;2022-10-23T03:41:02;9.50;99.90
52471;DHT22;38382;53.160;7.026;2022-10-23T03:43:28;9.50;99.90
52471;DHT22;38382;53.160;7.026;2022-10-23T03:45:55;9.60;99.90
52471;DHT22;38382;53.160;7.026;2022-10-23T03:48:21;9.60;99.90
52471;DHT22;38382;53.160;7.026;2022-10-23T03:50:49;9.70;99.90
52471;DHT22;38382;53.160;7.026;2022-10-23T03:53:15;9.70;99.90
52471;DHT22;38382;53.160;7.026;2022-10-23T03:55:43;9.70;99.90
52471;DHT22;38382;53.160;7.026;2022-10-23T03:58:08;9.70;99.90
52471;DHT22;38382;53.160;7.026;2022-10-23T04:00:34;9.70;99.90
52471;DHT22;38382;53.160;7.026;2022-10-23T04:03:00;9.70;99.90
52471;DHT22;38382;53.160;7.026;2022-10-23T04:05:26;9.70;99.90
52471;DHT22;38382;53.160;7.026;2022-10-23T04:07:51;9.70;99.90
52471;DHT22;38382;53.160;7.026;2022-10-23T04:10:17;9.60;99.90
52471;DHT22;38382;53.160;7.026;2022-10-23T04:12:43;9.60;99.90
52471;DHT22;38382;53.160;7.026;2022-10-23T04:15:09;9.60;99.90
52471;DHT22;38382;53.160;7.026;2022-10-23T04:17:34;9.50;99.90
52471;DHT22;38382;53.160;7.026;2022-10-23T04:20:00;9.50;99.90
52471;DHT22;38382;53.160;7.026;2022-10-23T04:22:26;9.50;99.90
52471;DHT22;38382;53.160;7.026;2022-10-23T04:24:52;9.50;99.90
52471;DHT22;38382;53.160;7.026;2022-10-23T04:27:17;9.50;99.90
52471;DHT22;38382;53.160;7.026;2022-10-23T04:29:43;9.50;99.90
52471;DHT22;38382;53.160;7.026;2022-10-23T04:32:09;9.50;99.90
52471;DHT22;38382;53.160;7.026;2022-10-23T04:34:35;9.50;99.90
52471;DHT22;38382;53.160;7.026;2022-10-23T04:37:00;9.50;99.90
52471;DHT22;38382;53.160;7.026;2022-10-23T04:39:26;9.40;99.90
52471;DHT22;38382;53.160;7.026;2022-10-23T04:41:52;9.40;99.90
52471;DHT22;38382;53.160;7.026;2022-10-23T04:44:18;9.40;99.90
52471;DHT22;38382;53.160;7.026;2022-10-23T04:46:44;9.40;99.90
52471;DHT22;38382;53.160;7.026;2022-10-23T04:49:09;9.30;99.90
52471;DHT22;38382;53.160;7.026;2022-10-23T04:51:36;9.30;99.90
52471;DHT22;38382;53.160;7.026;2022-10-23T04:54:03;9.40;99.90
52471;DHT22;38382;53.160;7.026;2022-10-23T04:56:28;9.30;99.90
52471;DHT22;38382;53.160;7.026;2022-10-23T04:58:54;9.30;99.90
52471;DHT22;38382;53.160;7.026;2022-10-23T05:01:20;9.40;99.90
52471;DHT22;38382;53.160;7.026;2022-10-23T05:03:45;9.30;99.90
52471;DHT22;38382;53.160;7.026;2022-10-23T05:06:11;9.40;99.90
52471;DHT22;38382;53.160;7.026;2022-10-23T05:08:37;9.40;99.90
52471;DHT22;38382;53.160;7.026;2022-10-23T05:11:03;9.40;99.90
52471;DHT22;38382;53.160;7.026;2022-10-23T05:13:29;9.50;99.90
52471;DHT22;38382;53.160;7.026;2022-10-23T05:15:57;9.50;99.90
52471;DHT22;38382;53.160;7.026;2022-10-23T05:18:33;9.50;99.90
52471;DHT22;38382;53.160;7.026;2022-10-23T05:21:11;9.60;99.90
52471;DHT22;38382;53.160;7.026;2022-10-23T05:23:40;9.60;99.90
52471;DHT22;38382;53.160;7.026;2022-10-23T05:26:06;9.60;99.90
52471;DHT22;38382;53.160;7.026;2022-10-23T05:28:32;9.60;99.90
52471;DHT22;38382;53.160;7.026;2022-10-23T05:30:59;9.60;99.90
52471;DHT22;38382;53.160;7.026;2022-10-23T05:33:27;9.70;99.90
52471;DHT22;38382;53.160;7.026;2022-10-23T05:35:54;9.60;99.90
52471;DHT22;38382;53.160;7.026;2022-10-23T05:38:20;9.60;99.90
52471;DHT22;38382;53.160;7.026;2022-10-23T05:40:46;9.60;99.90
52471;DHT22;38382;53.160;7.026;2022-10-23T05:43:12;9.60;99.90
52471;DHT22;38382;53.160;7.026;2022-10-23T05:45:38;10.00;99.90
52471;DHT22;38382;53.160;7.026;2022-10-23T05:48:04;9.70;99.90
52471;DHT22;38382;53.160;7.026;2022-10-23T05:50:30;9.60;99.90
52471;DHT22;38382;53.160;7.026;2022-10-23T05:52:55;9.60;99.90
52471;DHT22;38382;53.160;7.026;2022-10-23T05:55:21;9.60;99.90
52471;DHT22;38382;53.160;7.026;2022-10-23T05:57:47;9.60;99.90
52471;DHT22;38382;53.160;7.026;2022-10-23T06:00:13;9.60;99.90
52471;DHT22;38382;53.160;7.026;2022-10-23T06:02:38;9.50;99.90
52471;DHT22;38382;53.160;7.026;2022-10-23T06:05:04;9.60;99.90
52471;DHT22;38382;53.160;7.026;2022-10-23T06:07:30;9.60;99.90
52471;DHT22;38382;53.160;7.026;2022-10-23T06:09:56;9.90;99.90
52471;DHT22;38382;53.160;7.026;2022-10-23T06:12:21;9.60;99.90
52471;DHT22;38382;53.160;7.026;2022-10-23T06:14:48;9.60;99.90
52471;DHT22;38382;53.160;7.026;2022-10-23T06:17:14;9.60;99.90
52471;DHT22;38382;53.160;7.026;2022-10-23T06:19:40;9.60;99.90
52471;DHT22;38382;53.160;7.026;2022-10-23T06:22:06;9.60;99.90
52471;DHT22;38382;53.160;7.026;2022-10-23T06:24:31;9.50;99.90
52471;DHT22;38382;53.160;7.026;2022-10-23T06:26:57;9.60;99.90
52471;DHT22;38382;53.160;7.026;2022-10-23T06:29:23;9.50;99.90
52471;DHT22;38382;53.160;7.026;2022-10-23T06:31:49;9.50;99.90
52471;DHT22;38382;53.160;7.026;2022-10-23T06:34:14;9.60;99.90
52471;DHT22;38382;53.160;7.026;2022-10-23T06:36:40;9.60;99.90
52471;DHT22;38382;53.160;7.026;2022-10-23T06:39:06;9.60;99.90
52471;DHT22;38382;53.160;7.026;2022-10-23T06:41:32;9.70;99.90
52471;DHT22;38382;53.160;7.026;2022-10-23T06:43:58;10.00;99.90
52471;DHT22;38382;53.160;7.026;2022-10-23T06:46:24;9.70;99.90
52471;DHT22;38382;53.160;7.026;2022-10-23T06:48:51;9.70;99.90
52471;DHT22;38382;53.160;7.026;2022-10-23T06:51:18;9.80;99.90
52471;DHT22;38382;53.160;7.026;2022-10-23T06:53:44;9.80;99.90
52471;DHT22;38382;53.160;7.026;2022-10-23T06:56:11;9.90;99.90
52471;DHT22;38382;53.160;7.026;2022-10-23T06:58:38;9.90;99.90
52471;DHT22;38382;53.160;7.026;2022-10-23T07:01:06;9.90;99.90
52471;DHT22;38382;53.160;7.026;2022-10-23T07:03:32;9.90;99.90
52471;DHT22;38382;53.160;7.026;2022-10-23T07:06:04;10.00;99.90
52471;DHT22;38382;53.160;7.026;2022-10-23T07:08:30;10.00;99.90
52471;DHT22;38382;53.160;7.026;2022-10-23T07:10:56;10.00;99.90
52471;DHT22;38382;53.160;7.026;2022-10-23T07:13:22;10.00;99.90
52471;DHT22;38382;53.160;7.026;2022-10-23T07:15:49;10.10;99.90
52471;DHT22;38382;53.160;7.026;2022-10-23T07:18:15;10.20;99.90
52471;DHT22;38382;53.160;7.026;2022-10-23T07:20:41;10.20;99.90
52471;DHT22;38382;53.160;7.026;2022-10-23T07:23:08;10.80;99.90
52471;DHT22;38382;53.160;7.026;2022-10-23T07:25:35;10.30;99.90
52471;DHT22;38382;53.160;7.026;2022-10-23T07:28:03;10.30;99.90
52471;DHT22;38382;53.160;7.026;2022-10-23T07:30:28;10.30;99.90
52471;DHT22;38382;53.160;7.026;2022-10-23T07:32:54;10.40;99.90
52471;DHT22;38382;53.160;7.026;2022-10-23T07:35:21;10.40;99.90
52471;DHT22;38382;53.160;7.026;2022-10-23T07:37:46;10.40;99.90
52471;DHT22;38382;53.160;7.026;2022-10-23T07:40:13;10.50;99.90
52471;DHT22;38382;53.160;7.026;2022-10-23T07:42:39;10.50;99.90
52471;DHT22;38382;53.160;7.026;2022-10-23T07:45:05;10.60;99.90
52471;DHT22;38382;53.160;7.026;2022-10-23T07:47:32;10.60;99.90
52471;DHT22;38382;53.160;7.026;2022-10-23T07:49:58;10.60;99.90
52471;DHT22;38382;53.160;7.026;2022-10-23T07:52:24;10.70;99.90
52471;DHT22;38382;53.160;7.026;2022-10-23T07:54:51;10.70;99.90
52471;DHT22;38382;53.160;7.026;2022-10-23T07:57:17;10.80;99.90
52471;DHT22;38382;53.160;7.026;2022-10-23T07:59:43;10.80;99.90
52471;DHT22;38382;53.160;7.026;2022-10-23T08:02:13;10.80;99.90
52471;DHT22;38382;53.160;7.026;2022-10-23T08:04:39;10.90;99.90
52471;DHT22;38382;53.160;7.026;2022-10-23T08:07:05;10.90;99.90
52471;DHT22;38382;53.160;7.026;2022-10-23T08:09:31;11.00;99.90
52471;DHT22;38382;53.160;7.026;2022-10-23T08:11:59;11.10;99.90
52471;DHT22;38382;53.160;7.026;2022-10-23T08:14:25;11.10;99.90
52471;DHT22;38382;53.160;7.026;2022-10-23T08:16:54;11.10;99.90
52471;DHT22;38382;53.160;7.026;2022-10-23T08:19:20;11.20;99.90
52471;DHT22;38382;53.160;7.026;2022-10-23T08:21:45;11.30;99.90
52471;DHT22;38382;53.160;7.026;2022-10-23T08:24:11;11.30;99.90
52471;DHT22;38382;53.160;7.026;2022-10-23T08:26:38;11.40;99.90
52471;DHT22;38382;53.160;7.026;2022-10-23T08:29:04;11.40;99.90
52471;DHT22;38382;53.160;7.026;2022-10-23T08:31:30;11.50;99.90
52471;DHT22;38382;53.160;7.026;2022-10-23T08:33:55;11.60;99.90
52471;DHT22;38382;53.160;7.026;2022-10-23T08:36:24;11.60;99.90
52471;DHT22;38382;53.160;7.026;2022-10-23T08:38:51;11.70;99.90
52471;DHT22;38382;53.160;7.026;2022-10-23T08:41:34;11.80;99.90
52471;DHT22;38382;53.160;7.026;2022-10-23T08:46:48;12.00;99.90
52471;DHT22;38382;53.160;7.026;2022-10-23T08:49:39;12.00;99.90
52471;DHT22;38382;53.160;7.026;2022-10-23T08:52:21;12.10;99.90
52471;DHT22;38382;53.160;7.026;2022-10-23T08:54:55;12.20;99.90
52471;DHT22;38382;53.160;7.026;2022-10-23T08:57:26;12.30;99.90
52471;DHT22;38382;53.160;7.026;2022-10-23T09:00:04;12.40;99.90
52471;DHT22;38382;53.160;7.026;2022-10-23T09:02:44;12.50;99.90
52471;DHT22;38382;53.160;7.026;2022-10-23T09:05:20;12.60;99.90
52471;DHT22;38382;53.160;7.026;2022-10-23T09:13:43;12.90;99.90
52471;DHT22;38382;53.160;7.026;2022-10-23T09:19:16;13.10;99.90
52471;DHT22;38382;53.160;7.026;2022-10-23T09:21:47;13.20;99.90
52471;DHT22;38382;53.160;7.026;2022-10-23T09:24:16;13.20;99.90
52471;DHT22;38382;53.160;7.026;2022-10-23T09:26:46;13.40;99.90
52471;DHT22;38382;53.160;7.026;2022-10-23T09:29:27;13.40;99.90
52471;DHT22;38382;53.160;7.026;2022-10-23T09:31:55;13.50;99.90
52471;DHT22;38382;53.160;7.026;2022-10-23T09:34:27;13.60;99.90
52471;DHT22;38382;53.160;7.026;2022-10-23T09:39:26;13.90;99.90
52471;DHT22;38382;53.160;7.026;2022-10-23T09:41:52;14.00;99.90
52471;DHT22;38382;53.160;7.026;2022-10-23T09:44:27;14.10;99.90
52471;DHT22;38382;53.160;7.026;2022-10-23T09:46:57;14.20;99.90
52471;DHT22;38382;53.160;7.026;2022-10-23T09:49:28;14.30;99.90
52471;DHT22;38382;53.160;7.026;2022-10-23T09:54:43;14.40;99.90
52471;DHT22;38382;53.160;7.026;2022-10-23T09:59:52;14.80;99.90
52471;DHT22;38382;53.160;7.026;2022-10-23T10:02:33;14.90;99.90
52471;DHT22;38382;53.160;7.026;2022-10-23T10:05:43;15.10;99.90
52471;DHT22;38382;53.160;7.026;2022-10-23T10:08:26;15.10;99.90
52471;DHT22;38382;53.160;7.026;2022-10-23T10:11:16;15.20;99.90
52471;DHT22;38382;53.160;7.026;2022-10-23T10:13:55;15.30;99.90
52471;DHT22;38382;53.160;7.026;2022-10-23T10:19:17;15.40;99.90
52471;DHT22;38382;53.160;7.026;2022-10-23T10:22:02;15.40;99.90
52471;DHT22;38382;53.160;7.026;2022-10-23T10:24:47;15.40;99.90
52471;DHT22;38382;53.160;7.026;2022-10-23T10:35:57;15.70;99.90
52471;DHT22;38382;53.160;7.026;2022-10-23T10:38:51;15.90;99.90
52471;DHT22;38382;53.160;7.026;2022-10-23T10:47:11;16.30;99.90
52471;DHT22;38382;53.160;7.026;2022-10-23T10:58:19;16.70;99.90
52471;DHT22;38382;53.160;7.026;2022-10-23T11:00:49;16.70;99.90
52471;DHT22;38382;53.160;7.026;2022-10-23T11:03:36;16.70;99.90
52471;DHT22;38382;53.160;7.026;2022-10-23T11:06:05;16.70;99.90
52471;DHT22;38382;53.160;7.026;2022-10-23T11:08:38;16.70;99.90
52471;DHT22;38382;53.160;7.026;2022-10-23T11:11:21;16.70;99.90
52471;DHT22;38382;53.160;7.026;2022-10-23T11:13:50;16.80;99.90
52471;DHT22;38382;53.160;7.026;2022-10-23T11:16:25;16.80;99.90
52471;DHT22;38382;53.160;7.026;2022-10-23T11:30:24;16.80;99.90
52471;DHT22;38382;53.160;7.026;2022-10-23T11:38:44;16.60;99.90
52471;DHT22;38382;53.160;7.026;2022-10-23T11:41:22;16.60;99.90
52471;DHT22;38382;53.160;7.026;2022-10-23T11:43:54;16.60;99.90
52471;DHT22;38382;53.160;7.026;2022-10-23T11:48:52;16.70;99.90
52471;DHT22;38382;53.160;7.026;2022-10-23T11:51:44;16.60;99.90
52471;DHT22;38382;53.160;7.026;2022-10-23T11:56:37;16.70;99.90
52471;DHT22;38382;53.160;7.026;2022-10-23T12:01:49;16.70;99.90
52471;DHT22;38382;53.160;7.026;2022-10-23T12:04:29;16.70;99.90
52471;DHT22;38382;53.160;7.026;2022-10-23T12:06:59;16.60;99.90
52471;DHT22;38382;53.160;7.026;2022-10-23T12:12:14;16.50;99.90
52471;DHT22;38382;53.160;7.026;2022-10-23T12:14:46;16.40;99.90
52471;DHT22;38382;53.160;7.026;2022-10-23T12:19:50;16.50;99.90
52471;DHT22;38382;53.160;7.026;2022-10-23T12:22:16;16.50;99.90
52471;DHT22;38382;53.160;7.026;2022-10-23T12:25:02;16.50;99.90
52471;DHT22;38382;53.160;7.026;2022-10-23T12:35:21;16.50;99.90
52471;DHT22;38382;53.160;7.026;2022-10-23T12:38:04;16.50;99.90
52471;DHT22;38382;53.160;7.026;2022-10-23T12:40:34;16.50;99.90
52471;DHT22;38382;53.160;7.026;2022-10-23T12:43:00;16.60;99.90
52471;DHT22;38382;53.160;7.026;2022-10-23T12:45:37;16.60;99.90
52471;DHT22;38382;53.160;7.026;2022-10-23T12:48:04;16.70;99.90
52471;DHT22;38382;53.160;7.026;2022-10-23T12:50:32;16.70;99.90
52471;DHT22;38382;53.160;7.026;2022-10-23T12:53:00;16.70;99.90
52471;DHT22;38382;53.160;7.026;2022-10-23T12:55:31;16.80;99.90
52471;DHT22;38382;53.160;7.026;2022-10-23T13:00:50;16.90;99.90
52471;DHT22;38382;53.160;7.026;2022-10-23T13:03:16;16.90;99.90
52471;DHT22;38382;53.160;7.026;2022-10-23T13:05:44;16.90;99.90
52471;DHT22;38382;53.160;7.026;2022-10-23T13:08:10;16.90;99.90
52471;DHT22;38382;53.160;7.026;2022-10-23T13:10:36;17.00;99.90
52471;DHT22;38382;53.160;7.026;2022-10-23T13:13:05;16.90;99.90
52471;DHT22;38382;53.160;7.026;2022-10-23T13:15:42;17.00;99.90
52471;DHT22;38382;53.160;7.026;2022-10-23T13:18:11;17.00;99.90
52471;DHT22;38382;53.160;7.026;2022-10-23T13:23:17;17.00;99.90
52471;DHT22;38382;53.160;7.026;2022-10-23T13:28:42;16.90;99.90
52471;DHT22;38382;53.160;7.026;2022-10-23T13:33:47;16.90;99.90
52471;DHT22;38382;53.160;7.026;2022-10-23T13:41:25;16.90;99.90
52471;DHT22;38382;53.160;7.026;2022-10-23T13:43:51;16.90;99.90
52471;DHT22;38382;53.160;7.026;2022-10-23T13:46:18;16.90;99.90
52471;DHT22;38382;53.160;7.026;2022-10-23T13:48:45;16.90;99.90
52471;DHT22;38382;53.160;7.026;2022-10-23T13:53:41;16.90;99.90
52471;DHT22;38382;53.160;7.026;2022-10-23T13:56:12;17.00;99.90
52471;DHT22;38382;53.160;7.026;2022-10-23T13:58:38;17.00;99.90
52471;DHT22;38382;53.160;7.026;2022-10-23T14:01:05;16.90;99.90
52471;DHT22;38382;53.160;7.026;2022-10-23T14:03:31;16.90;99.90
52471;DHT22;38382;53.160;7.026;2022-10-23T14:05:58;16.90;99.90
52471;DHT22;38382;53.160;7.026;2022-10-23T14:08:25;16.80;99.90
52471;DHT22;38382;53.160;7.026;2022-10-23T14:10:50;16.80;99.90
52471;DHT22;38382;53.160;7.026;2022-10-23T14:13:16;16.70;99.90
52471;DHT22;38382;53.160;7.026;2022-10-23T14:15:42;16.70;99.90
52471;DHT22;38382;53.160;7.026;2022-10-23T14:18:07;16.60;99.90
52471;DHT22;38382;53.160;7.026;2022-10-23T14:20:33;16.60;99.90
52471;DHT22;38382;53.160;7.026;2022-10-23T14:22:59;16.60;99.90
52471;DHT22;38382;53.160;7.026;2022-10-23T14:25:24;16.60;99.90
52471;DHT22;38382;53.160;7.026;2022-10-23T14:27:50;16.50;99.90
52471;DHT22;38382;53.160;7.026;2022-10-23T14:30:16;16.50;99.90
52471;DHT22;38382;53.160;7.026;2022-10-23T14:32:42;16.50;99.90
52471;DHT22;38382;53.160;7.026;2022-10-23T14:35:08;16.40;99.90
52471;DHT22;38382;53.160;7.026;2022-10-23T14:37:34;16.40;99.90
52471;DHT22;38382;53.160;7.026;2022-10-23T14:40:00;16.40;99.90
52471;DHT22;38382;53.160;7.026;2022-10-23T14:42:26;16.40;99.90
52471;DHT22;38382;53.160;7.026;2022-10-23T14:44:52;16.30;99.90
52471;DHT22;38382;53.160;7.026;2022-10-23T14:47:18;16.30;99.90
52471;DHT22;38382;53.160;7.026;2022-10-23T14:49:47;16.30;99.90
52471;DHT22;38382;53.160;7.026;2022-10-23T14:52:14;16.20;99.90
52471;DHT22;38382;53.160;7.026;2022-10-23T14:54:40;16.20;99.90
52471;DHT22;38382;53.160;7.026;2022-10-23T14:57:06;16.20;99.90
52471;DHT22;38382;53.160;7.026;2022-10-23T14:59:32;16.20;99.90
52471;DHT22;38382;53.160;7.026;2022-10-23T15:01:58;16.20;99.90
52471;DHT22;38382;53.160;7.026;2022-10-23T15:04:27;16.10;99.90
52471;DHT22;38382;53.160;7.026;2022-10-23T15:06:53;16.10;99.90
52471;DHT22;38382;53.160;7.026;2022-10-23T15:09:18;16.10;99.90
52471;DHT22;38382;53.160;7.026;2022-10-23T15:11:45;16.10;99.90
52471;DHT22;38382;53.160;7.026;2022-10-23T15:14:11;16.10;99.90
52471;DHT22;38382;53.160;7.026;2022-10-23T15:16:37;16.00;99.90
52471;DHT22;38382;53.160;7.026;2022-10-23T15:19:09;16.10;99.90
52471;DHT22;38382;53.160;7.026;2022-10-23T15:21:35;16.00;99.90
52471;DHT22;38382;53.160;7.026;2022-10-23T15:24:02;16.00;99.90
52471;DHT22;38382;53.160;7.026;2022-10-23T15:26:28;16.00;99.90
52471;DHT22;38382;53.160;7.026;2022-10-23T15:28:56;15.90;99.90
52471;DHT22;38382;53.160;7.026;2022-10-23T15:33:54;15.90;99.90
52471;DHT22;38382;53.160;7.026;2022-10-23T15:36:20;15.90;99.90
52471;DHT22;38382;53.160;7.026;2022-10-23T15:38:45;15.80;99.90
52471;DHT22;38382;53.160;7.026;2022-10-23T15:41:19;15.80;99.90
52471;DHT22;38382;53.160;7.026;2022-10-23T15:43:46;15.80;99.90
52471;DHT22;38382;53.160;7.026;2022-10-23T15:46:12;15.70;99.90
52471;DHT22;38382;53.160;7.026;2022-10-23T15:48:37;15.70;99.90
52471;DHT22;38382;53.160;7.026;2022-10-23T15:51:03;15.60;99.90
52471;DHT22;38382;53.160;7.026;2022-10-23T15:53:29;15.60;99.90
52471;DHT22;38382;53.160;7.026;2022-10-23T15:55:55;15.60;99.90
52471;DHT22;38382;53.160;7.026;2022-10-23T15:58:23;15.60;99.90
52471;DHT22;38382;53.160;7.026;2022-10-23T16:00:49;15.60;99.90
52471;DHT22;38382;53.160;7.026;2022-10-23T16:03:15;15.50;99.90
52471;DHT22;38382;53.160;7.026;2022-10-23T16:05:41;15.50;99.90
52471;DHT22;38382;53.160;7.026;2022-10-23T16:08:06;15.50;99.90
52471;DHT22;38382;53.160;7.026;2022-10-23T16:10:32;15.40;99.90
52471;DHT22;38382;53.160;7.026;2022-10-23T16:13:02;15.40;99.90
52471;DHT22;38382;53.160;7.026;2022-10-23T16:15:28;15.40;99.90
52471;DHT22;38382;53.160;7.026;2022-10-23T16:17:54;15.30;99.90
52471;DHT22;38382;53.160;7.026;2022-10-23T16:20:19;15.30;99.90
52471;DHT22;38382;53.160;7.026;2022-10-23T16:22:47;15.20;99.90
52471;DHT22;38382;53.160;7.026;2022-10-23T16:25:13;15.20;99.90
52471;DHT22;38382;53.160;7.026;2022-10-23T16:27:39;15.10;99.90
52471;DHT22;38382;53.160;7.026;2022-10-23T16:30:06;15.10;99.90
52471;DHT22;38382;53.160;7.026;2022-10-23T16:32:34;15.10;99.90
52471;DHT22;38382;53.160;7.026;2022-10-23T16:35:00;15.10;99.90
52471;DHT22;38382;53.160;7.026;2022-10-23T16:37:26;15.10;99.90
52471;DHT22;38382;53.160;7.026;2022-10-23T16:39:52;15.00;99.90
52471;DHT22;38382;53.160;7.026;2022-10-23T16:42:17;15.00;99.90
52471;DHT22;38382;53.160;7.026;2022-10-23T16:44:43;15.00;99.90
52471;DHT22;38382;53.160;7.026;2022-10-23T16:47:09;15.00;99.90
52471;DHT22;38382;53.160;7.026;2022-10-23T16:49:35;14.90;99.90
52471;DHT22;38382;53.160;7.026;2022-10-23T16:52:00;14.90;99.90
52471;DHT22;38382;53.160;7.026;2022-10-23T16:54:26;14.90;99.90
52471;DHT22;38382;53.160;7.026;2022-10-23T16:56:52;14.90;99.90
52471;DHT22;38382;53.160;7.026;2022-10-23T16:59:18;14.80;99.90
52471;DHT22;38382;53.160;7.026;2022-10-23T17:01:43;14.80;99.90
52471;DHT22;38382;53.160;7.026;2022-10-23T17:04:09;14.80;99.90
52471;DHT22;38382;53.160;7.026;2022-10-23T17:06:35;14.70;99.90
52471;DHT22;38382;53.160;7.026;2022-10-23T17:09:01;14.70;99.90
52471;DHT22;38382;53.160;7.026;2022-10-23T17:11:30;14.60;99.90
52471;DHT22;38382;53.160;7.026;2022-10-23T17:13:59;14.60;99.90
52471;DHT22;38382;53.160;7.026;2022-10-23T17:16:31;14.60;99.90
52471;DHT22;38382;53.160;7.026;2022-10-23T17:18:59;14.60;99.90
52471;DHT22;38382;53.160;7.026;2022-10-23T17:21:32;14.50;99.90
52471;DHT22;38382;53.160;7.026;2022-10-23T17:23:59;14.40;99.90
52471;DHT22;38382;53.160;7.026;2022-10-23T17:26:25;14.40;99.90
52471;DHT22;38382;53.160;7.026;2022-10-23T17:28:51;14.40;99.90
52471;DHT22;38382;53.160;7.026;2022-10-23T17:31:19;14.40;99.90
52471;DHT22;38382;53.160;7.026;2022-10-23T17:33:47;14.30;99.90
52471;DHT22;38382;53.160;7.026;2022-10-23T17:36:14;14.30;99.90
52471;DHT22;38382;53.160;7.026;2022-10-23T17:38:41;14.30;99.90
52471;DHT22;38382;53.160;7.026;2022-10-23T17:41:08;14.30;99.90
52471;DHT22;38382;53.160;7.026;2022-10-23T17:43:34;14.30;99.90
52471;DHT22;38382;53.160;7.026;2022-10-23T17:46:02;14.30;99.90
52471;DHT22;38382;53.160;7.026;2022-10-23T17:48:28;14.30;99.90